Time;durP1;ratioP1;P1;durP2;ratioP2;P2;SDS_P1;SDS_P2;PMS_P1;PMS_P2;Temp;Humidity;BMP_temperature;BMP_pressure;BME280_temperature;BME280_humidity;BME280_pressure;Samples;Min_cycle;Max_cycle;Signal;HPM_P1;HPM_P2
2021/01/26 00:01:00;;;;;;;1999.90;999.90;;;2.90;99.90;;;;;;5031538;28;20234;-66
2021/01/26 00:03:26;;;;;;;1999.90;999.90;;;2.90;99.90;;;;;;5031431;28;20244;-66
2021/01/26 00:05:51;;;;;;;1999.90;999.90;;;2.90;99.90;;;;;;5031542;28;20418;-66
2021/01/26 00:08:18;;;;;;;1999.90;999.90;;;2.90;99.90;;;;;;5031271;28;20172;-66
2021/01/26 00:10:44;;;;;;;1999.90;999.90;;;3.00;99.90;;;;;;5031372;28;20179;-66
2021/01/26 00:13:10;;;;;;;1999.90;999.90;;;3.00;99.90;;;;;;5031364;28;20189;-66
2021/01/26 00:15:36;;;;;;;1999.90;999.90;;;2.90;99.90;;;;;;5031528;28;20485;-66
2021/01/26 00:18:04;;;;;;;1999.90;999.90;;;3.00;99.90;;;;;;5031503;28;20481;-66
2021/01/26 00:20:29;;;;;;;1999.90;999.90;;;3.00;99.90;;;;;;5031365;28;20668;-66
2021/01/26 00:22:55;;;;;;;1999.90;999.90;;;3.00;99.90;;;;;;5031171;28;20200;-66
2021/01/26 00:25:28;;;;;;;1999.90;999.90;;;3.10;99.90;;;;;;5031080;28;20176;-66
2021/01/26 00:27:54;;;;;;;1999.90;999.90;;;3.10;99.90;;;;;;5031186;28;20176;-66
2021/01/26 00:30:23;;;;;;;1999.90;999.90;;;3.10;99.90;;;;;;5030907;28;20168;-66
2021/01/26 00:32:49;;;;;;;1999.90;999.90;;;3.10;99.90;;;;;;5030883;28;20837;-66
2021/01/26 00:35:17;;;;;;;1999.90;999.90;;;3.10;99.90;;;;;;5031085;28;20215;-66
2021/01/26 00:37:43;;;;;;;1999.90;999.90;;;3.10;99.90;;;;;;5031056;28;20399;-66
2021/01/26 00:40:09;;;;;;;1999.90;999.90;;;3.10;99.90;;;;;;5030891;28;20561;-66
2021/01/26 00:42:35;;;;;;;1999.90;999.90;;;3.10;99.90;;;;;;5030827;28;20192;-66
2021/01/26 00:45:02;;;;;;;1999.90;999.90;;;3.20;99.90;;;;;;5030894;28;20264;-66
2021/01/26 00:47:28;;;;;;;1999.90;999.90;;;3.20;99.90;;;;;;5030873;28;20180;-66
2021/01/26 00:49:53;;;;;;;1999.90;999.90;;;3.20;99.90;;;;;;5030633;28;20298;-66
2021/01/26 00:52:19;;;;;;;1999.90;999.90;;;3.20;99.90;;;;;;5030734;28;20208;-66
2021/01/26 00:54:45;;;;;;;1999.90;999.90;;;3.20;99.90;;;;;;5030881;28;20170;-66
2021/01/26 00:57:10;;;;;;;1999.90;999.90;;;3.10;99.90;;;;;;5030866;28;20168;-66
2021/01/26 00:59:36;;;;;;;1999.90;999.90;;;3.10;99.90;;;;;;5030491;28;20238;-66
2021/01/26 01:02:02;;;;;;;1999.90;999.90;;;3.10;99.90;;;;;;5030550;28;20208;-66
2021/01/26 01:04:27;;;;;;;1999.90;999.90;;;3.10;99.90;;;;;;5030775;28;20172;-66
2021/01/26 01:06:53;;;;;;;1999.90;999.90;;;3.10;99.90;;;;;;5030778;28;20470;-66
2021/01/26 01:09:19;;;;;;;1999.90;999.90;;;3.10;99.90;;;;;;5030558;28;20537;-66
2021/01/26 01:11:44;;;;;;;1999.90;999.90;;;3.10;99.90;;;;;;5030614;28;20287;-66
2021/01/26 01:14:10;;;;;;;1999.90;999.90;;;3.10;99.90;;;;;;5030531;28;20173;-66
2021/01/26 01:16:35;;;;;;;1999.90;999.90;;;3.10;99.90;;;;;;5030705;28;20168;-66
2021/01/26 01:19:01;;;;;;;1999.90;999.90;;;3.10;99.90;;;;;;5030535;28;20188;-66
2021/01/26 01:21:27;;;;;;;1999.90;999.90;;;3.10;99.90;;;;;;5030639;28;20184;-66
2021/01/26 01:23:52;;;;;;;1999.90;999.90;;;3.00;99.90;;;;;;5030686;28;20403;-66
2021/01/26 01:26:18;;;;;;;1999.90;999.90;;;3.00;99.90;;;;;;5030696;28;20849;-66
2021/01/26 01:28:44;;;;;;;1999.90;999.90;;;3.00;99.90;;;;;;5030324;28;20195;-66
2021/01/26 01:31:09;;;;;;;1999.90;999.90;;;3.10;99.90;;;;;;5030581;28;20200;-66
2021/01/26 01:33:35;;;;;;;1999.90;999.90;;;3.10;99.90;;;;;;5030841;28;20168;-66
2021/01/26 01:36:00;;;;;;;1999.90;999.90;;;3.10;99.90;;;;;;5030710;28;20258;-66
2021/01/26 01:38:26;;;;;;;1999.90;999.90;;;3.10;99.90;;;;;;5031685;28;20164;-66
2021/01/26 01:40:53;;;;;;;1999.90;999.90;;;3.10;99.90;;;;;;5034256;28;20186;-66
2021/01/26 01:43:20;;;;;;;1999.90;999.90;;;3.10;99.90;;;;;;5034166;28;20422;-66
2021/01/26 01:45:47;;;;;;;1999.90;999.90;;;3.10;99.90;;;;;;5034191;28;20176;-66
2021/01/26 01:48:22;;;;;;;1999.90;999.90;;;3.10;99.90;;;;;;5033853;28;20167;-66
2021/01/26 01:50:52;;;;;;;1999.90;999.90;;;3.10;99.90;;;;;;5034101;28;20294;-66
2021/01/26 01:53:36;;;;;;;1999.90;999.90;;;3.20;99.90;;;;;;5034159;28;20255;-66
2021/01/26 01:56:13;;;;;;;1999.90;999.90;;;3.20;99.90;;;;;;5034105;28;20236;-66
2021/01/26 01:58:47;;;;;;;1999.90;999.90;;;3.20;99.90;;;;;;5033761;28;20180;-66
2021/01/26 02:01:18;;;;;;;1999.90;999.90;;;3.20;99.90;;;;;;5033782;28;20688;-66
2021/01/26 02:03:51;;;;;;;1999.90;999.90;;;3.10;99.90;;;;;;5033843;28;20715;-66
2021/01/26 02:06:19;;;;;;;1999.90;999.90;;;3.20;99.90;;;;;;5033814;28;20165;-66
2021/01/26 02:08:54;;;;;;;1999.90;999.90;;;3.20;99.90;;;;;;5033563;28;20168;-66
2021/01/26 02:11:20;;;;;;;1999.90;999.90;;;3.20;99.90;;;;;;5033580;28;20210;-66
2021/01/26 02:13:47;;;;;;;1999.90;999.90;;;3.20;99.90;;;;;;5033758;28;20176;-66
2021/01/26 02:16:34;;;;;;;1999.90;999.90;;;3.20;99.90;;;;;;5033725;28;20173;-66
2021/01/26 02:19:09;;;;;;;1999.90;999.90;;;3.20;99.90;;;;;;5033190;28;20272;-66
2021/01/26 02:22:12;;;;;;;1999.90;999.90;;;3.20;99.90;;;;;;5033686;28;20192;-66
2021/01/26 02:25:08;;;;;;;1999.90;999.90;;;3.20;99.90;;;;;;5033558;28;20771;-66
2021/01/26 02:28:10;;;;;;;1999.90;999.90;;;3.20;99.90;;;;;;5033390;28;20175;-66
2021/01/26 02:30:42;;;;;;;1999.90;999.90;;;3.20;99.90;;;;;;5033333;28;20187;-66
2021/01/26 02:33:07;;;;;;;1999.90;999.90;;;3.20;99.90;;;;;;5033253;28;20197;-66
2021/01/26 02:36:00;;;;;;;1999.90;999.90;;;3.20;99.90;;;;;;5033151;28;20219;-66
2021/01/26 02:39:07;;;;;;;1999.90;999.90;;;3.20;99.90;;;;;;5032919;28;20222;-66
2021/01/26 02:41:37;;;;;;;1999.90;999.90;;;3.10;99.90;;;;;;5025649;28;20779;-66
2021/01/26 02:44:26;;;;;;;1999.90;999.90;;;3.10;99.90;;;;;;5033169;28;20165;-66
2021/01/26 02:47:12;;;;;;;1999.90;999.90;;;3.10;99.90;;;;;;5033045;28;20654;-66
2021/01/26 02:50:00;;;;;;;1999.90;999.90;;;3.10;99.90;;;;;;5032620;28;20168;-66
2021/01/26 02:52:39;;;;;;;1999.90;999.90;;;3.20;99.90;;;;;;5032866;28;20246;-66
2021/01/26 02:55:17;;;;;;;1999.90;999.90;;;3.10;99.90;;;;;;5032875;28;20164;-66
2021/01/26 02:57:48;;;;;;;1999.90;999.90;;;3.20;99.90;;;;;;5032869;28;20173;-66
2021/01/26 03:00:19;;;;;;;1999.90;999.90;;;3.10;99.90;;;;;;5032575;28;20255;-66
2021/01/26 03:02:53;;;;;;;1999.90;999.90;;;3.10;99.90;;;;;;5032612;28;20685;-66
2021/01/26 03:05:26;;;;;;;1999.90;999.90;;;3.10;99.90;;;;;;5032663;28;20691;-66
2021/01/26 03:07:59;;;;;;;1999.90;999.90;;;3.10;99.90;;;;;;5032796;28;20204;-66
2021/01/26 03:10:32;;;;;;;1999.90;999.90;;;3.20;99.90;;;;;;5032320;28;20187;-66
2021/01/26 03:13:02;;;;;;;1999.90;999.90;;;3.20;99.90;;;;;;5032310;28;20235;-66
2021/01/26 03:15:35;;;;;;;1999.90;999.90;;;3.20;99.90;;;;;;5032617;28;20164;-66
2021/01/26 03:18:08;;;;;;;1999.90;999.90;;;3.20;99.90;;;;;;5032451;28;20168;-66
2021/01/26 03:20:56;;;;;;;1999.90;999.90;;;3.20;99.90;;;;;;5032297;28;20167;-66
2021/01/26 03:24:01;;;;;;;1999.90;999.90;;;3.20;99.90;;;;;;5031999;28;20657;-66
2021/01/26 03:26:27;;;;;;;1999.90;999.90;;;3.20;99.90;;;;;;5032182;28;20167;-66
2021/01/26 03:28:57;;;;;;;1999.90;999.90;;;3.10;99.90;;;;;;5031894;28;20184;-66
2021/01/26 03:31:47;;;;;;;1999.90;999.90;;;3.10;99.90;;;;;;5032146;28;20231;-66
2021/01/26 03:34:13;;;;;;;1999.90;999.90;;;3.10;99.90;;;;;;5032265;28;20263;-66
2021/01/26 03:36:39;;;;;;;1999.90;999.90;;;3.00;99.90;;;;;;5032035;28;20263;-66
2021/01/26 03:39:06;;;;;;;1999.90;999.90;;;3.00;99.90;;;;;;5031844;28;20203;-66
2021/01/26 03:41:32;;;;;;;1999.90;999.90;;;3.00;99.90;;;;;;5032072;28;20427;-66
2021/01/26 03:43:58;;;;;;;1999.90;999.90;;;3.10;99.90;;;;;;5031879;28;20276;-66
2021/01/26 03:46:38;;;;;;;1999.90;999.90;;;3.10;99.90;;;;;;5031900;28;20688;-66
2021/01/26 03:49:30;;;;;;;1999.90;999.90;;;3.10;99.90;;;;;;5031508;28;20168;-66
2021/01/26 03:52:20;;;;;;;1999.90;999.90;;;3.10;99.90;;;;;;5023064;28;20219;-66
2021/01/26 03:55:12;;;;;;;1999.90;999.90;;;3.10;99.90;;;;;;5031816;28;20527;-66
2021/01/26 03:58:05;;;;;;;1999.90;999.90;;;3.10;99.90;;;;;;5030577;28;20237;-66
2021/01/26 04:00:54;;;;;;;1999.90;999.90;;;3.10;99.90;;;;;;5031325;28;20173;-66
2021/01/26 04:03:52;;;;;;;1999.90;999.90;;;3.00;99.90;;;;;;5091051;22;20227;-66
2021/01/26 04:06:43;;;;;;;1999.90;999.90;;;3.00;99.90;;;;;;5048374;28;20187;-66
2021/01/26 04:09:12;;;;;;;1999.90;999.90;;;3.00;99.90;;;;;;5051137;28;20172;-66
2021/01/26 04:11:55;;;;;;;1999.90;999.90;;;3.00;99.90;;;;;;5051253;28;20230;-66
2021/01/26 04:14:32;;;;;;;1999.90;999.90;;;3.10;99.90;;;;;;5051320;28;20262;-66
2021/01/26 04:17:09;;;;;;;1999.90;999.90;;;3.00;99.90;;;;;;5051305;28;20169;-67
2021/01/26 04:19:39;;;;;;;1999.90;999.90;;;3.10;99.90;;;;;;5050921;28;20167;-65
2021/01/26 04:22:08;;;;;;;1999.90;999.90;;;3.00;99.90;;;;;;5051179;28;20202;-67
2021/01/26 04:24:35;;;;;;;1999.90;999.90;;;3.00;99.90;;;;;;5051302;28;20594;-67
2021/01/26 04:27:14;;;;;;;1999.90;999.90;;;3.00;99.90;;;;;;5051047;28;20199;-66
2021/01/26 04:29:39;;;;;;;1999.90;999.90;;;3.10;99.90;;;;;;5050802;28;20179;-66
2021/01/26 04:32:05;;;;;;;1999.90;999.90;;;3.00;99.90;;;;;;5050771;28;20221;-66
2021/01/26 04:34:31;;;;;;;1999.90;999.90;;;3.00;99.90;;;;;;5051013;28;20217;-66
2021/01/26 04:36:57;;;;;;;1999.90;999.90;;;3.10;99.90;;;;;;5051002;28;20636;-67
2021/01/26 04:39:23;;;;;;;1999.90;999.90;;;3.10;99.90;;;;;;5050734;28;20695;-66
2021/01/26 04:42:02;;;;;;;1999.90;999.90;;;3.10;99.90;;;;;;5050837;28;20196;-66
2021/01/26 04:44:47;;;;;;;1999.90;999.90;;;3.20;99.90;;;;;;5050884;28;20168;-66
2021/01/26 04:48:00;;;;;;;1999.90;999.90;;;3.20;99.90;;;;;;5050894;28;20167;-65
2021/01/26 04:50:47;;;;;;;1999.90;999.90;;;3.10;99.90;;;;;;5046702;28;20288;-67
2021/01/26 04:53:28;;;;;;;1999.90;999.90;;;3.20;99.90;;;;;;5050788;28;20214;-66
2021/01/26 04:56:17;;;;;;;1999.90;999.90;;;3.20;99.90;;;;;;5051199;28;20174;-66
2021/01/26 04:59:13;;;;;;;1999.90;999.90;;;3.20;99.90;;;;;;5050837;28;20555;-66
2021/01/26 05:02:14;;;;;;;1999.90;999.90;;;3.20;99.90;;;;;;5050699;28;20226;-66
2021/01/26 05:05:02;;;;;;;1999.90;999.90;;;3.20;99.90;;;;;;5050794;28;20174;-66
2021/01/26 05:07:35;;;;;;;1999.90;999.90;;;3.20;99.90;;;;;;5050703;28;20175;-66
2021/01/26 05:10:15;;;;;;;1999.90;999.90;;;3.20;99.90;;;;;;5050701;28;20186;-66
2021/01/26 05:12:58;;;;;;;1999.90;999.90;;;3.20;99.90;;;;;;5050799;28;20638;-67
2021/01/26 05:15:28;;;;;;;1999.90;999.90;;;3.20;99.90;;;;;;5054698;28;20168;-67
2021/01/26 05:17:58;;;;;;;1999.90;999.90;;;3.20;99.90;;;;;;5054560;28;20176;-66
2021/01/26 05:20:30;;;;;;;1999.90;999.90;;;3.20;99.90;;;;;;5054342;28;20168;-67
2021/01/26 05:23:27;;;;;;;1999.90;999.90;;;3.20;99.90;;;;;;5054455;28;20681;-66
2021/01/26 05:25:54;;;;;;;1999.90;999.90;;;3.20;99.90;;;;;;5053564;28;20191;-66
2021/01/26 05:28:20;;;;;;;1999.90;999.90;;;3.20;99.90;;;;;;5054179;28;20758;-67
2021/01/26 05:30:54;;;;;;;1999.90;999.90;;;3.20;99.90;;;;;;5054305;28;20203;-67
2021/01/26 05:33:20;;;;;;;1999.90;999.90;;;3.10;99.90;;;;;;5054276;28;20187;-67
2021/01/26 05:35:53;;;;;;;1999.90;999.90;;;3.00;99.90;;;;;;5053108;28;20215;-67
2021/01/26 05:38:19;;;;;;;1999.90;999.90;;;3.10;99.90;;;;;;5053969;28;20257;-68
2021/01/26 05:40:52;;;;;;;1999.90;999.90;;;3.10;99.90;;;;;;5054140;28;20168;-67
2021/01/26 05:43:22;;;;;;;1999.90;999.90;;;3.10;99.90;;;;;;5054062;28;20195;-67
2021/01/26 05:45:53;;;;;;;1999.90;999.90;;;3.10;99.90;;;;;;5054085;28;20180;-67
2021/01/26 05:48:21;;;;;;;1999.90;999.90;;;3.00;99.90;;;;;;5054032;28;20637;-68
2021/01/26 05:50:48;;;;;;;1999.90;999.90;;;3.10;99.90;;;;;;5053992;28;20537;-67
2021/01/26 05:53:27;;;;;;;1999.90;999.90;;;3.10;99.90;;;;;;5053765;28;20682;-67
2021/01/26 05:56:00;;;;;;;1999.90;999.90;;;3.00;99.90;;;;;;5053906;28;20163;-67
2021/01/26 05:58:28;;;;;;;1999.90;999.90;;;3.00;99.90;;;;;;5053761;28;20180;-67
2021/01/26 06:00:58;;;;;;;1999.90;999.90;;;3.00;99.90;;;;;;5053835;28;20169;-67
2021/01/26 06:03:25;;;;;;;1999.90;999.90;;;3.00;99.90;;;;;;5053550;28;20219;-66
2021/01/26 06:06:06;;;;;;;1999.90;999.90;;;3.10;99.90;;;;;;5053715;28;20172;-67
2021/01/26 06:08:47;;;;;;;1999.90;999.90;;;3.10;99.90;;;;;;5053461;28;20271;-67
2021/01/26 06:11:20;;;;;;;1999.90;999.90;;;3.10;99.90;;;;;;5053438;28;20242;-66
2021/01/26 06:13:46;;;;;;;1999.90;999.90;;;3.10;99.90;;;;;;5053528;28;20288;-66
2021/01/26 06:16:13;;;;;;;1999.90;999.90;;;3.10;99.90;;;;;;5053555;28;20258;-66
2021/01/26 06:18:54;;;;;;;1999.90;999.90;;;3.10;99.90;;;;;;5053244;28;20713;-66
2021/01/26 06:21:19;;;;;;;1999.90;999.90;;;3.10;99.90;;;;;;5053435;28;20179;-66
2021/01/26 06:23:45;;;;;;;1999.90;999.90;;;3.20;99.90;;;;;;5052989;28;20706;-66
2021/01/26 06:26:12;;;;;;;1999.90;999.90;;;3.20;99.90;;;;;;5053227;28;20258;-66
2021/01/26 06:28:40;;;;;;;1999.90;999.90;;;3.20;99.90;;;;;;5053068;28;20213;-66
2021/01/26 06:31:31;;;;;;;1999.90;999.90;;;3.10;99.90;;;;;;5053117;28;20736;-66
2021/01/26 06:34:06;;;;;;;1999.90;999.90;;;3.10;99.90;;;;;;5053638;28;20183;-66
2021/01/26 06:36:56;;;;;;;1999.90;999.90;;;3.10;99.90;;;;;;5053320;28;20178;-66
2021/01/26 06:39:39;;;;;;;1999.90;999.90;;;3.20;99.90;;;;;;5052948;28;20160;-66
2021/01/26 06:42:16;;;;;;;1999.90;999.90;;;3.20;99.90;;;;;;5053206;28;20207;-66
2021/01/26 06:45:19;;;;;;;1999.90;999.90;;;3.20;99.90;;;;;;5053117;28;20651;-66
2021/01/26 06:47:50;;;;;;;1999.90;999.90;;;3.20;99.90;;;;;;5052970;28;20175;-66
2021/01/26 06:50:46;;;;;;;1999.90;999.90;;;3.20;99.90;;;;;;5052606;28;20172;-66
2021/01/26 06:53:37;;;;;;;1999.90;999.90;;;3.20;99.90;;;;;;5052742;28;20211;-66
2021/01/26 06:56:21;;;;;;;1999.90;999.90;;;3.10;99.90;;;;;;5052707;28;20160;-66
2021/01/26 06:59:22;;;;;;;1999.90;999.90;;;3.20;99.90;;;;;;5052478;28;20532;-66
2021/01/26 07:02:18;;;;;;;1999.90;999.90;;;3.20;99.90;;;;;;5052526;28;20582;-66
2021/01/26 07:04:57;;;;;;;1999.90;999.90;;;3.20;99.90;;;;;;5052592;28;20171;-66
2021/01/26 07:08:00;;;;;;;1999.90;999.90;;;3.20;99.90;;;;;;5052611;28;20216;-66
2021/01/26 07:10:55;;;;;;;1999.90;999.90;;;3.20;99.90;;;;;;5052112;28;20233;-66
2021/01/26 07:13:52;;;;;;;1999.90;999.90;;;3.20;99.90;;;;;;5052333;28;20274;-66
2021/01/26 07:16:39;;;;;;;1999.90;999.90;;;3.20;99.90;;;;;;5052403;28;20176;-66
2021/01/26 07:19:27;;;;;;;1999.90;999.90;;;3.20;99.90;;;;;;5052098;28;20653;-66
2021/01/26 07:22:20;;;;;;;1999.90;999.90;;;3.20;99.90;;;;;;5052230;28;20200;-66
2021/01/26 07:25:17;;;;;;;1999.90;999.90;;;3.20;99.90;;;;;;5052200;28;20176;-66
2021/01/26 07:28:03;;;;;;;1999.90;999.90;;;3.20;99.90;;;;;;5052439;28;20168;-65
2021/01/26 07:30:54;;;;;;;1999.90;999.90;;;3.20;99.90;;;;;;5051971;28;20174;-66
2021/01/26 07:33:29;;;;;;;1999.90;999.90;;;3.20;99.90;;;;;;5051463;28;20223;-66
2021/01/26 07:36:20;;;;;;;1999.90;999.90;;;3.10;99.90;;;;;;5051165;28;20257;-67
2021/01/26 07:38:49;;;;;;;1999.90;999.90;;;3.10;99.90;;;;;;5051742;28;20606;-66
2021/01/26 07:41:26;;;;;;;1999.90;999.90;;;3.00;99.90;;;;;;5051885;28;20166;-66
2021/01/26 07:44:02;;;;;;;1999.90;999.90;;;2.90;99.90;;;;;;5051722;28;20229;-67
2021/01/26 07:46:37;;;;;;;1999.90;999.90;;;2.90;99.90;;;;;;5051857;28;20658;-67
2021/01/26 07:49:33;;;;;;;1999.90;999.90;;;2.90;99.90;;;;;;5051604;28;20230;-66
2021/01/26 07:52:01;;;;;;;1999.90;999.90;;;2.90;99.90;;;;;;5046917;28;20207;-66
2021/01/26 07:54:46;;;;;;;1999.90;999.90;;;2.90;99.90;;;;;;5051777;28;20160;-67
2021/01/26 07:57:14;;;;;;;1999.90;999.90;;;2.90;99.90;;;;;;5051598;28;20683;-67
2021/01/26 07:59:47;;;;;;;1999.90;999.90;;;3.00;99.90;;;;;;5051403;28;20247;-67
2021/01/26 08:02:19;;;;;;;1999.90;999.90;;;3.00;99.90;;;;;;5051423;28;20207;-67
2021/01/26 08:04:46;;;;;;;1999.90;999.90;;;3.10;99.90;;;;;;5051520;28;20168;-66
2021/01/26 08:07:28;;;;;;;1999.90;999.90;;;3.10;99.90;;;;;;5051540;28;20180;-67
2021/01/26 08:09:56;;;;;;;1999.90;999.90;;;3.00;99.90;;;;;;5051386;28;20661;-66
2021/01/26 08:12:40;;;;;;;1999.90;999.90;;;3.00;99.90;;;;;;5051424;28;20239;-67
2021/01/26 08:15:27;;;;;;;1999.90;999.90;;;3.00;99.90;;;;;;5051372;28;20673;-66
2021/01/26 08:17:53;;;;;;;1999.90;999.90;;;3.00;99.90;;;;;;5051757;28;20550;-66
2021/01/26 08:20:24;;;;;;;1999.90;999.90;;;3.00;99.90;;;;;;5051242;28;20168;-66
2021/01/26 08:23:05;;;;;;;1999.90;999.90;;;3.00;99.90;;;;;;5051110;28;20183;-67
2021/01/26 08:25:34;;;;;;;1999.90;999.90;;;2.90;99.90;;;;;;5051044;28;20267;-67
2021/01/26 08:28:23;;;;;;;1999.90;999.90;;;2.90;99.90;;;;;;5051127;28;20171;-66
2021/01/26 08:30:49;;;;;;;1999.90;999.90;;;2.80;99.90;;;;;;5045358;28;20183;-66
2021/01/26 08:33:17;;;;;;;1999.90;999.90;;;2.80;99.90;;;;;;5050957;28;20211;-66
2021/01/26 08:36:01;;;;;;;1999.90;999.90;;;2.80;99.90;;;;;;5050922;28;20305;-66
2021/01/26 08:38:42;;;;;;;1999.90;999.90;;;2.90;99.90;;;;;;5050864;28;20233;-66
2021/01/26 08:41:08;;;;;;;1999.90;999.90;;;2.90;99.90;;;;;;5050890;28;20160;-66
2021/01/26 08:43:46;;;;;;;1999.90;999.90;;;2.90;99.90;;;;;;5050757;28;20191;-67
2021/01/26 08:46:33;;;;;;;1999.90;999.90;;;3.00;99.90;;;;;;5050863;28;20625;-67
2021/01/26 08:49:03;;;;;;;1999.90;999.90;;;3.00;99.90;;;;;;5050758;28;20229;-67
2021/01/26 08:51:29;;;;;;;1999.90;999.90;;;3.00;99.90;;;;;;5050746;28;20632;-67
2021/01/26 08:53:55;;;;;;;1999.90;999.90;;;3.10;99.90;;;;;;5050690;28;20259;-66
2021/01/26 08:56:25;;;;;;;1999.90;999.90;;;3.00;99.90;;;;;;5050807;28;20168;-67
2021/01/26 08:58:53;;;;;;;1999.90;999.90;;;3.00;99.90;;;;;;5050421;28;20186;-66
2021/01/26 09:01:22;;;;;;;1999.90;999.90;;;3.00;99.90;;;;;;5050726;28;20195;-66
2021/01/26 09:03:49;;;;;;;1999.90;999.90;;;3.00;99.90;;;;;;5050692;28;20176;-66
2021/01/26 09:06:43;;;;;;;1999.90;999.90;;;3.00;99.90;;;;;;5046235;28;20172;-67
2021/01/26 09:09:17;;;;;;;1999.90;999.90;;;3.00;99.90;;;;;;5049022;28;20308;-66
2021/01/26 09:11:56;;;;;;;1999.90;999.90;;;3.00;99.90;;;;;;5049622;28;20202;-66
2021/01/26 09:14:40;;;;;;;1999.90;999.90;;;3.10;99.90;;;;;;5049106;28;20170;-66
2021/01/26 09:17:17;;;;;;;1999.90;999.90;;;3.10;99.90;;;;;;5049528;28;20345;-66
2021/01/26 09:20:05;;;;;;;1999.90;999.90;;;3.20;99.90;;;;;;5049129;28;20171;-66
2021/01/26 09:22:31;;;;;;;1999.90;999.90;;;3.20;99.90;;;;;;5049415;28;20344;-67
2021/01/26 09:25:18;;;;;;;1999.90;999.90;;;3.30;99.90;;;;;;5049387;28;20168;-66
2021/01/26 09:28:01;;;;;;;1999.90;999.90;;;3.30;99.90;;;;;;5048432;28;20653;-66
2021/01/26 09:30:28;;;;;;;1999.90;999.90;;;3.30;99.90;;;;;;5049353;28;20195;-66
2021/01/26 09:33:12;;;;;;;1999.90;999.90;;;3.30;99.90;;;;;;5049488;28;20207;-66
2021/01/26 09:35:46;;;;;;;1999.90;999.90;;;3.30;99.90;;;;;;5046847;28;20168;-67
2021/01/26 09:38:26;;;;;;;1999.90;999.90;;;3.30;99.90;;;;;;5048257;28;20164;-67
2021/01/26 09:41:14;;;;;;;1999.90;999.90;;;3.40;99.90;;;;;;5048707;28;20186;-67
2021/01/26 09:43:43;;;;;;;1999.90;999.90;;;3.40;99.90;;;;;;5048415;28;20155;-67
2021/01/26 09:46:26;;;;;;;1999.90;999.90;;;3.40;99.90;;;;;;5048659;28;20171;-66
2021/01/26 09:49:29;;;;;;;1999.90;999.90;;;3.50;99.90;;;;;;5048449;28;20181;-67
2021/01/26 09:52:07;;;;;;;1999.90;999.90;;;3.50;99.90;;;;;;4967236;28;20218;-66
2021/01/26 09:54:35;;;;;;;1999.90;999.90;;;3.50;99.90;;;;;;5038761;28;20575;-66
2021/01/26 09:57:03;;;;;;;1999.90;999.90;;;3.60;99.90;;;;;;5048126;28;20540;-66
2021/01/26 09:59:34;;;;;;;1999.90;999.90;;;3.60;99.90;;;;;;5049822;28;20175;-67
2021/01/26 10:02:04;;;;;;;1999.90;999.90;;;3.70;99.90;;;;;;5052127;28;20210;-67
2021/01/26 10:04:36;;;;;;;1999.90;999.90;;;3.70;99.90;;;;;;5051728;28;20176;-66
2021/01/26 10:07:04;;;;;;;1999.90;999.90;;;3.70;99.90;;;;;;5052074;28;20199;-68
2021/01/26 10:09:31;;;;;;;1999.90;999.90;;;3.80;99.90;;;;;;5051610;28;20176;-68
2021/01/26 10:12:40;;;;;;;1999.90;999.90;;;3.80;99.90;;;;;;5051534;28;20215;-66
2021/01/26 10:15:22;;;;;;;1999.90;999.90;;;3.80;99.90;;;;;;5051987;28;20152;-66
2021/01/26 10:18:15;;;;;;;1999.90;999.90;;;3.90;99.90;;;;;;5051952;28;20526;-66
2021/01/26 10:20:49;;;;;;;1999.90;999.90;;;3.90;99.90;;;;;;5052065;28;20214;-66
2021/01/26 10:23:26;;;;;;;1999.90;999.90;;;4.00;99.90;;;;;;5052225;28;20202;-66
2021/01/26 10:25:53;;;;;;;1999.90;999.90;;;4.10;99.90;;;;;;5051921;28;20160;-66
2021/01/26 10:28:27;;;;;;;1999.90;999.90;;;4.10;99.90;;;;;;5050846;28;20164;-67
2021/01/26 10:30:54;;;;;;;1999.90;999.90;;;4.20;99.90;;;;;;5051758;28;20211;-67
2021/01/26 10:33:41;;;;;;;1999.90;999.90;;;4.20;99.90;;;;;;5051210;28;20206;-66
2021/01/26 10:36:36;;;;;;;1999.90;999.90;;;4.20;99.90;;;;;;5050744;28;20177;-66
2021/01/26 10:39:21;;;;;;;1999.90;999.90;;;4.20;99.90;;;;;;5051135;28;20225;-66
2021/01/26 10:41:48;;;;;;;1999.90;999.90;;;4.20;99.90;;;;;;5051054;28;20196;-66
2021/01/26 10:44:16;;;;;;;1999.90;999.90;;;4.20;99.90;;;;;;5051598;28;20179;-66
2021/01/26 10:46:44;;;;;;;1999.90;999.90;;;4.30;99.90;;;;;;5051504;28;20175;-67
2021/01/26 10:49:11;;;;;;;1999.90;999.90;;;4.30;99.90;;;;;;5050394;28;20390;-66
2021/01/26 10:51:38;;;;;;;1999.90;999.90;;;4.30;99.90;;;;;;5051191;28;20243;-66
2021/01/26 10:54:07;;;;;;;1999.90;999.90;;;4.40;99.90;;;;;;5050981;28;20180;-66
2021/01/26 10:56:33;;;;;;;1999.90;999.90;;;4.40;99.90;;;;;;5050490;28;20168;-67
2021/01/26 10:58:58;;;;;;;1999.90;999.90;;;4.50;99.90;;;;;;5050827;28;20171;-66
2021/01/26 11:01:25;;;;;;;1999.90;999.90;;;4.50;99.90;;;;;;5051160;28;20259;-66
2021/01/26 11:03:52;;;;;;;1999.90;999.90;;;4.50;99.90;;;;;;5050701;28;20190;-66
2021/01/26 11:06:26;;;;;;;1999.90;999.90;;;4.50;99.90;;;;;;5051180;28;20178;-67
2021/01/26 11:08:53;;;;;;;1999.90;999.90;;;4.50;99.90;;;;;;5051299;28;20175;-67
2021/01/26 11:11:27;;;;;;;1999.90;999.90;;;4.50;99.90;;;;;;5050518;28;20438;-66
2021/01/26 11:13:54;;;;;;;1999.90;999.90;;;4.50;99.90;;;;;;5050746;28;20159;-66
2021/01/26 11:16:21;;;;;;;1999.90;999.90;;;4.60;99.90;;;;;;5050383;28;20581;-68
2021/01/26 11:18:46;;;;;;;1999.90;999.90;;;4.70;99.90;;;;;;5050022;28;20398;-67
2021/01/26 11:21:12;;;;;;;1999.90;999.90;;;4.70;99.90;;;;;;5051146;28;20880;-67
2021/01/26 11:23:39;;;;;;;1999.90;999.90;;;4.80;99.90;;;;;;5051382;28;20167;-67
2021/01/26 11:26:07;;;;;;;1999.90;999.90;;;4.80;99.90;;;;;;5050751;28;20916;-67
2021/01/26 11:28:33;;;;;;;1999.90;999.90;;;4.90;99.90;;;;;;5051049;28;20176;-67
2021/01/26 11:30:59;;;;;;;1999.90;999.90;;;4.90;99.90;;;;;;5050849;28;20620;-67
2021/01/26 11:33:25;;;;;;;1999.90;999.90;;;4.90;99.90;;;;;;5049655;28;20211;-66
2021/01/26 11:35:51;;;;;;;1999.90;999.90;;;4.80;99.90;;;;;;5050492;28;20455;-66
2021/01/26 11:38:17;;;;;;;1999.90;999.90;;;4.80;99.90;;;;;;5050174;28;20545;-67
2021/01/26 11:40:42;;;;;;;1999.90;999.90;;;4.80;99.90;;;;;;5050171;28;20195;-67
2021/01/26 11:43:08;;;;;;;1999.90;999.90;;;4.80;99.90;;;;;;5050449;28;20192;-67
2021/01/26 11:45:36;;;;;;;1999.90;999.90;;;4.90;99.90;;;;;;5050489;28;20262;-67
2021/01/26 11:48:04;;;;;;;1999.90;999.90;;;4.90;99.90;;;;;;5050040;28;20917;-66
2021/01/26 11:50:30;;;;;;;1999.90;999.90;;;5.00;99.90;;;;;;5050387;28;20179;-66
2021/01/26 11:52:56;;;;;;;1999.90;999.90;;;5.00;99.90;;;;;;5049943;28;20477;-67
2021/01/26 11:55:26;;;;;;;1999.90;999.90;;;5.10;99.90;;;;;;5049821;28;20679;-67
2021/01/26 11:57:52;;;;;;;1999.90;999.90;;;5.10;99.90;;;;;;5050254;28;20254;-67
2021/01/26 12:00:21;;;;;;;1999.90;999.90;;;5.10;99.90;;;;;;5050133;28;20258;-67
2021/01/26 12:02:48;;;;;;;1999.90;999.90;;;5.10;99.90;;;;;;5049795;28;20449;-67
2021/01/26 12:05:15;;;;;;;1999.90;999.90;;;5.20;99.90;;;;;;5050733;28;20405;-66
2021/01/26 12:07:40;;;;;;;1999.90;999.90;;;5.20;99.90;;;;;;5050132;28;20946;-66
2021/01/26 12:10:07;;;;;;;1999.90;999.90;;;5.20;99.90;;;;;;5049768;28;20398;-66
2021/01/26 12:12:33;;;;;;;1999.90;999.90;;;5.20;99.90;;;;;;5049517;28;20286;-67
2021/01/26 12:14:59;;;;;;;1999.90;999.90;;;5.20;99.90;;;;;;5049517;28;20505;-67
2021/01/26 12:17:24;;;;;;;1999.90;999.90;;;5.20;99.90;;;;;;5050140;28;20164;-66
2021/01/26 12:19:50;;;;;;;1999.90;999.90;;;5.20;99.90;;;;;;5049159;28;20475;-66
2021/01/26 12:22:16;;;;;;;1999.90;999.90;;;5.20;99.90;;;;;;5049497;28;20195;-66
2021/01/26 12:24:41;;;;;;;1999.90;999.90;;;5.30;99.90;;;;;;5050012;28;20179;-67
2021/01/26 12:27:07;;;;;;;1999.90;999.90;;;5.20;99.90;;;;;;5049410;28;20906;-67
2021/01/26 12:29:33;;;;;;;1999.90;999.90;;;5.10;99.90;;;;;;5049734;28;20184;-66
2021/01/26 12:31:59;;;;;;;1999.90;999.90;;;5.20;99.90;;;;;;5049583;28;20286;-67
2021/01/26 12:34:25;;;;;;;1999.90;999.90;;;5.10;99.90;;;;;;5048984;28;20266;-68
2021/01/26 12:36:50;;;;;;;1999.90;999.90;;;5.10;99.90;;;;;;5049315;28;20178;-67
2021/01/26 12:39:17;;;;;;;1999.90;999.90;;;5.10;99.90;;;;;;5049305;28;20180;-67
2021/01/26 12:41:43;;;;;;;1999.90;999.90;;;5.10;99.90;;;;;;5049147;28;20191;-66
2021/01/26 12:44:08;;;;;;;1999.90;999.90;;;5.10;99.90;;;;;;5031937;28;20387;-67